Albion, New Jersey
Current Conditions -  °F | °C
As of 1:54 AM on Wednesday 22 Oct 2014 (Local Time) from KVAY Reporting Station
Scattered Clouds Scattered Clouds  
Wind Chill: 55°   Ceiling: Unl
Heat Index: 55°   Visibility: 10mi
Dew Point: 51°   Wind: 6mph
Humidity: 86%   Direction: 20°NNE
Pressure: 29.86"   Gusts: NA
Location:  39.7587°N, 74.9349°W
Report Text: KVAY 220554Z AUTO 02005KT 10SM SCT100 13/11 A2986 RMK AO2 SLP110 T01280106 10133 20106 57009
Loading
Personal Weather Stations






























Interactive Weather Map
Tropical Storm Tracking
New forecast layout! Learn more

10-Day Weather Forecast

Advertisements
Track Severe Weather on mobile